Time;durP1;ratioP1;P1;durP2;ratioP2;P2;SDS_P1;SDS_P2;PMS_P1;PMS_P2;Temp;Humidity;BMP_temperature;BMP_pressure;BME280_temperature;BME280_humidity;BME280_pressure;Samples;Min_cycle;Max_cycle;Signal;HPM_P1;HPM_P2
2021/05/29 00:12:22;;;;;;;13.03;5.60;;;;;;;10.84;100.00;100744.80;712174;1202;115387;-75
2021/05/29 00:27:43;;;;;;;10.58;5.73;;;;;;;10.67;100.00;100746.17;712232;1202;115462;-74
2021/05/29 00:43:04;;;;;;;11.60;4.70;;;;;;;10.69;100.00;100736.37;712125;1202;115210;-75
2021/05/29 00:58:26;;;;;;;9.20;4.25;;;;;;;10.64;100.00;100742.01;712088;1202;114578;-74
2021/05/29 01:13:47;;;;;;;10.50;4.80;;;;;;;10.71;100.00;100744.97;712255;1202;113539;-75
2021/05/29 01:29:08;;;;;;;7.00;4.37;;;;;;;10.71;100.00;100737.91;712126;1203;114027;-75
2021/05/29 01:44:28;;;;;;;5.85;3.68;;;;;;;10.76;100.00;100741.00;712385;1178;113919;-75
2021/05/29 01:59:51;;;;;;;4.55;3.13;;;;;;;10.79;100.00;100745.16;712230;1202;114182;-76
2021/05/29 02:15:17;;;;;;;6.58;3.00;;;;;;;10.63;100.00;100732.46;712172;1202;114702;-74
2021/05/29 02:30:38;;;;;;;6.95;3.95;;;;;;;10.71;100.00;100727.41;712192;1202;114860;-74
2021/05/29 02:45:59;;;;;;;4.70;3.30;;;;;;;10.70;100.00;100736.23;712229;1202;114785;-74
2021/05/29 03:01:19;;;;;;;8.17;4.50;;;;;;;10.64;100.00;100742.01;712461;1202;114593;-74
2021/05/29 03:16:40;;;;;;;6.28;4.35;;;;;;;10.59;100.00;100755.48;712664;1203;114131;-74
2021/05/29 03:32:02;;;;;;;7.63;3.87;;;;;;;10.65;100.00;100762.05;712550;1202;114571;-74
2021/05/29 03:47:22;;;;;;;4.25;3.60;;;;;;;10.53;100.00;100770.89;712636;1205;114116;-74
2021/05/29 04:02:47;;;;;;;7.58;4.20;;;;;;;10.47;100.00;100767.80;712902;1202;114933;-74
2021/05/29 04:18:08;;;;;;;6.73;3.60;;;;;;;10.55;100.00;100764.56;712651;1205;114390;-74
2021/05/29 04:33:28;;;;;;;5.30;3.50;;;;;;;10.70;100.00;100767.73;714612;1203;114701;-73
2021/05/29 04:48:49;;;;;;;5.25;3.13;;;;;;;10.81;100.00;100765.08;712875;1205;115153;-74
2021/05/29 05:04:09;;;;;;;3.30;2.28;;;;;;;11.41;100.00;100751.41;715656;1168;114872;-75
2021/05/29 05:19:29;;;;;;;3.27;2.10;;;;;;;11.73;100.00;100761.00;712385;1202;115605;-75
2021/05/29 05:34:50;;;;;;;5.65;2.90;;;;;;;12.20;100.00;100757.86;712428;1203;115107;-75
2021/05/29 05:50:11;;;;;;;1.93;1.70;;;;;;;12.77;100.00;100759.89;712725;1206;114137;-75
2021/05/29 06:05:32;;;;;;;21.47;11.53;;;;;;;13.29;100.00;100752.52;712513;1202;115969;-75
2021/05/29 06:20:52;;;;;;;3.87;2.30;;;;;;;13.41;96.25;100750.58;713513;1202;115804;-76
2021/05/29 06:36:13;;;;;;;40.55;16.90;;;;;;;13.20;93.79;100757.81;712440;1180;115241;-76
2021/05/29 07:07:09;;;;;;;3.75;3.00;;;;;;;14.12;88.61;100762.40;713089;1205;115409;-76
2021/05/29 07:22:29;;;;;;;11.57;5.77;;;;;;;14.48;87.11;100756.36;712376;1202;114080;-76
2021/05/29 07:37:49;;;;;;;9.30;3.73;;;;;;;14.69;84.34;100755.25;712768;1202;115371;-76
2021/05/29 07:53:10;;;;;;;3.78;2.40;;;;;;;15.88;80.18;100756.63;712838;1202;115101;-76
2021/05/29 08:08:30;;;;;;;1.55;1.13;;;;;;;15.66;79.41;100748.20;714537;1202;113827;-76
2021/05/29 08:23:53;;;;;;;19.43;9.40;;;;;;;14.51;78.43;100744.67;712254;1203;115367;-76
2021/05/29 08:39:13;;;;;;;9.80;4.90;;;;;;;14.67;79.82;100746.67;712314;1202;114278;-78
2021/05/29 08:54:34;;;;;;;14.47;8.90;;;;;;;14.74;81.18;100758.27;712425;1202;114396;-78
2021/05/29 09:10:21;;;;;;;4.43;3.57;;;;;;;15.93;77.91;100770.21;712321;1203;114819;-78
2021/05/29 09:25:56;;;;;;;3.10;2.20;;;;;;;16.10;76.23;100763.98;712239;1202;114784;-77
2021/05/29 09:41:21;;;;;;;3.30;2.47;;;;;;;16.05;75.38;100758.34;712334;1202;115152;-74
2021/05/29 09:56:45;;;;;;;6.20;3.00;;;;;;;16.67;74.84;100766.92;712343;1203;114111;-77
2021/05/29 10:12:07;;;;;;;7.57;3.40;;;;;;;17.08;71.96;100753.75;712562;1184;113989;-76
2021/05/29 10:27:30;;;;;;;19.33;8.03;;;;;;;17.66;71.71;100745.67;712442;1203;113972;-77
2021/05/29 10:43:03;;;;;;;6.20;3.30;;;;;;;18.07;70.45;100740.26;712500;1202;115097;-75
2021/05/29 10:59:02;;;;;;;5.38;2.48;;;;;;;17.46;69.68;100754.85;713104;1202;113757;-76
2021/05/29 11:14:27;;;;;;;9.60;6.30;;;;;;;17.44;71.35;100758.67;713026;1202;115469;-74
2021/05/29 11:29:47;;;;;;;7.27;3.57;;;;;;;18.19;69.89;100746.82;715001;1203;116046;-74
2021/05/29 11:45:19;;;;;;;3.23;2.70;;;;;;;18.84;66.24;100747.39;712745;1203;115310;-74
2021/05/29 12:00:55;;;;;;;30.43;15.97;;;;;;;18.95;66.72;100739.03;712651;1203;115327;-77
2021/05/29 12:16:24;;;;;;;6.53;2.98;;;;;;;17.77;67.15;100746.13;712235;1202;115728;-76
2021/05/29 12:32:05;;;;;;;7.67;4.13;;;;;;;17.71;68.39;100741.53;712615;1177;114286;-78
2021/05/29 12:47:34;;;;;;;5.05;3.63;;;;;;;17.29;67.80;100747.94;712673;1202;114487;-77
2021/05/29 13:19:06;;;;;;;17.27;3.50;;;;;;;17.71;70.56;100752.14;712429;1202;114763;-75
2021/05/29 13:34:28;;;;;;;57.85;25.20;;;;;;;17.24;69.71;100776.77;712595;1202;115748;-76
2021/05/29 13:49:49;;;;;;;5.25;3.70;;;;;;;17.32;72.65;100783.89;712594;1205;115275;-74
2021/05/29 14:05:12;;;;;;;21.70;11.13;;;;;;;16.92;75.89;100781.09;712258;1203;113874;-74
2021/05/29 14:20:33;;;;;;;17.38;9.00;;;;;;;17.06;75.45;100796.30;712153;1205;114324;-76
2021/05/29 14:35:53;;;;;;;36.65;21.10;;;;;;;16.73;75.15;100787.48;712326;1203;115603;-80
2021/05/29 14:51:19;;;;;;;26.55;17.35;;;;;;;16.82;74.39;100788.33;712254;1202;114655;-79
2021/05/29 15:06:40;;;;;;;13.43;10.28;;;;;;;17.23;74.16;100801.61;712569;1203;114336;-77
2021/05/29 15:22:05;;;;;;;18.80;14.40;;;;;;;17.37;73.02;100802.78;712332;1202;115031;-76
2021/05/29 15:37:26;;;;;;;10.20;6.83;;;;;;;17.09;72.34;100811.05;712438;1205;114897;-77
2021/05/29 15:52:47;;;;;;;95.00;42.90;;;;;;;16.68;73.01;100813.63;712210;1203;114164;-77
2021/05/29 16:08:08;;;;;;;14.00;8.90;;;;;;;16.66;74.92;100816.44;712410;1202;115418;-76
2021/05/29 16:23:29;;;;;;;84.15;55.85;;;;;;;16.54;75.06;100821.20;712547;1202;115446;-76
2021/05/29 16:38:49;;;;;;;24.63;12.83;;;;;;;15.96;77.34;100823.62;712524;1182;114337;-76
2021/05/29 16:54:10;;;;;;;51.30;19.70;;;;;;;15.63;79.85;100841.09;712939;1205;114876;-78
2021/05/29 17:09:31;;;;;;;36.40;16.73;;;;;;;14.92;81.63;100850.73;712648;1203;114609;-77
2021/05/29 17:24:51;;;;;;;22.23;11.30;;;;;;;14.31;84.84;100859.09;712517;1202;115597;-78
2021/05/29 17:40:12;;;;;;;16.18;8.25;;;;;;;13.84;88.02;100868.84;712543;1202;115118;-78
2021/05/29 17:55:33;;;;;;;14.53;8.30;;;;;;;13.47;90.39;100879.16;712731;1180;113989;-76
2021/05/29 18:10:53;;;;;;;40.13;12.50;;;;;;;13.18;92.78;100888.83;712762;1206;115550;-78
2021/05/29 18:26:14;;;;;;;30.00;10.65;;;;;;;12.91;93.38;100898.22;712557;1202;115501;-77
2021/05/29 18:41:34;;;;;;;173.00;46.20;;;;;;;12.80;95.45;100905.27;712382;1203;113765;-76
2021/05/29 18:56:54;;;;;;;70.30;25.20;;;;;;;12.53;97.40;100923.46;712453;1202;115184;-78
2021/05/29 19:12:15;;;;;;;61.23;22.15;;;;;;;12.26;97.86;100943.25;712625;1183;114739;-77
2021/05/29 19:43:18;;;;;;;24.68;9.88;;;;;;;11.70;100.00;100962.78;712584;1203;115492;-79
2021/05/29 20:29:58;;;;;;;35.93;12.40;;;;;;;11.20;100.00;100994.81;712605;1205;114287;-78
2021/05/29 20:45:42;;;;;;;25.70;10.78;;;;;;;10.98;100.00;101005.22;712791;1202;115726;-81
2021/05/29 21:01:04;;;;;;;11.03;6.00;;;;;;;10.67;100.00;101006.77;712355;1187;114356;-78
2021/05/29 21:16:33;;;;;;;18.95;6.90;;;;;;;10.48;100.00;101010.80;713014;1177;114513;-77
2021/05/29 21:31:54;;;;;;;16.28;7.35;;;;;;;10.42;100.00;101010.43;712461;1176;114307;-78
2021/05/29 22:02:53;;;;;;;6.97;3.97;;;;;;;10.54;100.00;101040.14;712219;1202;114332;-80
2021/05/29 22:18:19;;;;;;;7.20;4.10;;;;;;;10.57;100.00;101059.13;712156;1205;114423;-80
2021/05/29 22:33:40;;;;;;;14.23;5.90;;;;;;;10.45;100.00;101063.51;712574;1205;115379;-77
2021/05/29 22:49:00;;;;;;;5.03;3.20;;;;;;;10.36;100.00;101068.59;712178;1202;114860;-78
2021/05/29 23:04:21;;;;;;;6.90;4.30;;;;;;;10.32;100.00;101073.22;712549;1205;114495;-80
2021/05/29 23:19:42;;;;;;;5.37;2.83;;;;;;;10.45;100.00;101055.64;712196;1187;114526;-79
2021/05/29 23:35:03;;;;;;;5.63;2.98;;;;;;;10.46;100.00;101054.66;712178;1203;115775;-78
2021/05/29 23:50:24;;;;;;;5.93;3.00;;;;;;;10.49;100.00;101057.07;712179;1202;115411;-77
